Latest Weather Observations for Wagga Wagga

IDN60801

Issued at 8:35 pm EST Wednesday 16 April 2014 (issued every 30 minutes, with the page automatically refreshed every 10 minutes)

About weather observations | Map of weather stations | Latest weather observations for NSW | Other Formats
Station Details ID: 072150 Name: WAGGA WAGGA AMO Lat: -35.16 Lon: 147.46 Height: 212.0 m
Data from the previous 72 hours. | See also: Recent months at Wagga Wagga
Date/Time
EST
Temp
°C
App
Temp
°C
Dew
Point
Rel
Hum
%
Delta-T
°C
Wind Press
QNH
hPa
Press
MSL
hPa
Rain
since 9 am
mm
Dir
 
Spd
km/h
Gust
km/h
Spd
kts
Gust
kts
16/08:30pm 13.1 13.0 9.6 79 1.8 S 0 0 0 0 1019.7 - 0.0
16/08:00pm 13.8 12.4 9.5 75 2.2 S 7 7 4 4 1019.5 1019.2 0.0
16/07:30pm 13.9 12.6 9.2 73 2.4 S 6 9 3 5 1019.3 - 0.0
16/07:00pm 14.4 12.0 8.7 68 2.9 S 11 11 6 6 1019.2 1018.9 0.0
16/06:30pm 14.5 12.6 9.1 70 2.8 S 9 13 5 7 1019.1 - 0.0
16/06:00pm 16.0 14.9 10.6 70 2.9 SW 7 9 4 5 1018.8 1018.5 0.0
16/05:30pm 17.8 16.1 9.9 60 4.2 SW 9 11 5 6 1018.5 - 0.0
16/05:00pm 19.7 17.5 7.7 45 6.2 SSW 9 11 5 6 1018.4 1018.1 0.0
16/04:30pm 20.8 17.9 8.3 44 6.6 WSW 13 17 7 9 1018.2 - 0.0
16/04:00pm 21.1 18.0 7.4 41 7.1 W 13 19 7 10 1018.2 1017.9 0.0
16/03:30pm 21.6 18.2 7.6 40 7.3 W 15 24 8 13 1018.3 - 0.0
16/03:00pm 21.6 18.0 6.8 38 7.6 W 15 20 8 11 1018.5 1018.2 0.0
16/02:30pm 21.3 17.7 6.9 39 7.4 WSW 15 26 8 14 1018.7 - 0.0
16/02:00pm 21.3 18.9 7.2 40 7.3 W 9 15 5 8 1018.8 1018.5 0.0
16/01:30pm 21.1 19.4 7.4 41 7.1 S 6 11 3 6 1019.1 - 0.0
16/01:00pm 20.6 19.3 9.9 50 5.8 W 7 9 4 5 1019.3 1019.0 0.0
16/12:30pm 19.7 18.9 9.6 52 5.4 E 4 9 2 5 1019.8 - 0.0
16/12:00pm 19.0 17.8 9.4 53 5.1 NE 6 9 3 5 1020.5 1020.2 0.0
16/11:30am 18.7 16.8 9.2 54 5.0 NE 9 15 5 8 1020.8 - 0.0
16/11:00am 18.0 16.1 9.0 55 4.7 E 9 15 5 8 1021.1 1020.8 0.0
16/10:30am 17.3 14.6 8.8 57 4.4 E 13 17 7 9 1021.3 - 0.0
16/09:30am 15.4 13.4 10.3 71 2.7 E 11 15 6 8 1021.6 - 0.0
16/09:00am 14.2 12.8 9.6 74 2.4 ENE 7 9 4 5 1021.8 1021.5 0.0
16/08:30am 13.1 11.2 9.2 77 2.0 E 9 11 5 6 1021.9 - 0.0
16/08:00am 12.3 10.9 8.7 79 1.8 E 6 7 3 4 1021.8 1021.5 0.0
16/07:30am 11.1 10.0 8.5 84 1.3 ESE 4 7 2 4 1021.6 - 0.0
16/07:00am 9.1 7.1 7.0 87 1.0 ESE 7 7 4 4 1021.1 1020.8 0.0
16/06:30am 8.0 5.9 6.7 91 0.6 ENE 7 9 4 5 1020.8 - 0.0
16/06:00am 8.7 6.9 7.2 90 0.7 SE 6 9 3 5 1020.6 1020.3 0.0
16/05:30am 8.1 6.3 7.0 93 0.5 SE 6 9 3 5 1020.4 - 0.0
16/05:00am 9.9 7.5 7.2 83 1.3 ESE 9 11 5 6 1020.2 1019.9 0.0
16/04:30am 9.9 7.6 7.4 84 1.2 E 9 9 5 5 1020.1 - 0.0
16/04:00am 10.2 7.5 7.5 83 1.3 ESE 11 11 6 6 1020.0 1019.7 0.0
16/03:30am 10.4 8.1 7.5 82 1.4 SE 9 11 5 6 1019.9 - 0.0
16/03:00am 10.4 8.1 7.3 81 1.5 ESE 9 11 5 6 1019.8 1019.5 0.0
16/02:30am 10.5 8.2 7.6 82 1.4 ESE 9 11 5 6 1019.9 - 0.0
16/02:00am 10.8 8.6 7.7 81 1.5 ESE 9 9 5 5 1020.2 1019.9 0.0
16/01:30am 10.7 9.0 8.3 85 1.2 E 7 7 4 4 1020.4 - 0.0
16/01:00am 10.1 9.9 9.1 93 0.5 CALM 0 0 0 0 1020.6 1020.3 0.0
16/12:30am 11.0 10.6 8.4 84 1.3 CALM 0 0 0 0 1020.6 - 0.0
16/12:00am 11.3 9.3 8.7 84 1.3 ESE 9 9 5 5 1020.7 1020.4 0.0
 
Date/Time
EST
Temp
°C
App
Temp
°C
Dew
Point
Rel
Hum
%
Delta-T
°C
Wind Press
QNH
hPa
Press
MSL
hPa
Rain
since 9 am
mm
Dir
 
Spd
km/h
Gust
km/h
Spd
kts
Gust
kts
15/11:30pm 11.5 11.1 8.3 81 1.6 CALM 0 4 0 2 1020.8 - 0.0
15/11:00pm 12.6 10.4 8.0 73 2.3 ESE 9 11 5 6 1020.7 1020.4 0.0
15/10:30pm 11.7 9.7 8.5 81 1.6 ENE 9 13 5 7 1020.8 - 0.0
15/10:00pm 12.6 11.0 8.6 76 2.0 N 7 9 4 5 1020.8 1020.5 0.0
15/09:30pm 13.6 12.4 8.0 69 2.8 S 4 7 2 4 1020.5 - 0.0
15/09:00pm 12.4 10.4 8.8 79 1.8 S 9 9 5 5 1020.3 1020.0 0.0
15/08:30pm 13.2 10.7 8.4 72 2.4 S 11 11 6 6 1020.3 - 0.0
15/08:00pm 13.6 10.8 8.4 71 2.6 SE 13 13 7 7 1020.3 1020.0 0.0
15/07:30pm 15.9 13.3 7.8 58 4.1 SE 11 13 6 7 1020.1 - 0.0
15/07:00pm 15.9 13.8 8.3 60 3.9 E 9 13 5 7 1020.0 1019.7 0.0
15/06:30pm 15.1 13.3 9.3 68 3.0 SSW 9 11 5 6 1019.7 - 0.0
15/06:00pm 16.8 14.7 8.2 57 4.4 SW 9 11 5 6 1019.3 1019.0 0.0
15/05:30pm 18.7 16.6 8.3 50 5.4 SW 9 11 5 6 1019.2 - 0.0
15/05:00pm 20.0 18.5 9.1 49 5.8 S 7 9 4 5 1019.1 1018.8 0.0
15/04:30pm 21.2 19.1 6.5 38 7.5 ESE 7 11 4 6 1018.9 - 0.0
15/04:00pm 21.0 18.3 5.6 36 7.7 SSE 9 15 5 8 1018.8 1018.5 0.0
15/03:30pm 21.4 18.1 6.3 37 7.7 SSE 13 17 7 9 1018.9 - 0.0
15/03:00pm 21.4 18.7 7.3 40 7.3 E 11 17 6 9 1019.1 1018.8 0.0
15/02:30pm 21.6 19.0 7.6 40 7.3 SE 11 17 6 9 1019.1 - 0.0
15/02:00pm 21.7 19.8 7.5 40 7.4 NNE 7 11 4 6 1019.1 1018.8 0.0
15/01:30pm 21.3 19.5 7.2 40 7.3 E 6 9 3 5 1019.3 - 0.0
15/01:00pm 20.5 18.6 6.8 41 7.0 S 6 13 3 7 1019.6 1019.3 0.0
15/12:30pm 20.4 17.1 6.6 40 7.0 S 13 17 7 9 1020.1 - 0.0
15/12:00pm 20.1 18.3 8.0 45 6.3 S 7 11 4 6 1020.7 1020.4 0.0
15/11:30am 19.1 18.1 8.8 51 5.4 W 4 7 2 4 1021.2 - 0.0
15/11:00am 18.4 16.9 8.6 53 5.1 SE 6 11 3 6 1021.5 1021.2 0.0
15/10:30am 17.5 15.6 7.7 52 5.0 ENE 7 9 4 5 1021.8 - 0.0
15/10:00am 16.4 14.3 8.4 59 4.1 ESE 9 13 5 7 1022.0 1021.7 0.0
15/09:30am 15.6 13.3 7.4 58 4.1 ESE 9 13 5 7 1022.1 - 0.0
15/09:00am 14.8 11.3 7.3 61 3.7 ESE 15 17 8 9 1022.2 1021.9 0.0
15/08:30am 13.8 11.0 7.1 64 3.3 ESE 11 17 6 9 1022.1 - 0.0
15/08:00am 12.8 9.6 6.8 67 2.9 ESE 13 17 7 9 1022.0 1021.7 0.0
15/07:30am 11.0 7.7 6.6 74 2.1 ESE 13 15 7 8 1021.6 - 0.0
15/07:00am 10.2 6.9 6.4 77 1.8 ESE 13 15 7 8 1021.4 1021.1 0.0
15/06:30am 10.2 7.2 6.1 76 1.9 E 11 13 6 7 1021.2 - 0.0
15/06:00am 10.2 8.0 6.4 77 1.8 SE 7 11 4 6 1021.0 1020.7 0.0
15/05:30am 10.0 7.1 6.6 79 1.6 SE 11 13 6 7 1020.9 - 0.0
15/05:00am 10.2 7.1 7.1 81 1.5 SSE 13 13 7 7 1020.8 1020.5 0.0
15/04:30am 10.4 7.3 7.3 81 1.5 SSE 13 15 7 8 1020.7 - 0.0
15/04:00am 10.9 7.7 8.3 84 1.3 SE 15 17 8 9 1020.5 1020.2 0.0
15/03:30am 10.8 9.1 8.4 85 1.2 SE 7 9 4 5 1020.5 - 0.0
15/03:00am 11.0 8.2 8.4 84 1.3 SE 13 15 7 8 1020.4 1020.1 0.0
15/02:30am 9.5 7.2 7.6 88 0.9 SSE 9 11 5 6 1020.6 - 0.0
15/02:00am 11.2 8.6 7.7 79 1.7 SSE 11 11 6 6 1020.7 1020.4 0.0
15/01:30am 11.2 8.7 8.2 82 1.5 SE 11 13 6 7 1020.7 - 0.0
15/01:00am 10.4 8.2 7.9 84 1.2 SE 9 11 5 6 1020.7 1020.4 0.0
15/12:30am 12.1 9.5 7.8 75 2.1 ESE 11 13 6 7 1020.6 - 0.0
15/12:00am 10.9 8.0 8.0 82 1.4 SE 13 13 7 7 1020.6 1020.3 0.0
 
Date/Time
EST
Temp
°C
App
Temp
°C
Dew
Point
Rel
Hum
%
Delta-T
°C
Wind Press
QNH
hPa
Press
MSL
hPa
Rain
since 9 am
mm
Dir
 
Spd
km/h
Gust
km/h
Spd
kts
Gust
kts
14/11:30pm 12.4 9.5 8.0 74 2.2 ESE 13 15 7 8 1020.6 - 0.0
14/11:00pm 12.4 9.8 7.7 73 2.3 E 11 13 6 7 1020.5 1020.2 0.0
14/10:30pm 11.3 9.8 8.3 82 1.5 N 6 11 3 6 1020.6 - 0.0
14/10:00pm 11.6 11.3 8.6 82 1.5 CALM 0 0 0 0 1020.5 1020.2 0.0
14/09:30pm 12.3 11.9 8.3 76 2.0 CALM 0 0 0 0 1020.6 - 0.0
14/09:00pm 12.9 12.4 7.9 71 2.5 CALM 0 0 0 0 1020.5 1020.2 0.0
14/08:30pm 13.3 12.7 7.6 68 2.8 CALM 0 0 0 0 1020.4 - 0.0
14/08:00pm 13.1 12.6 7.9 70 2.6 CALM 0 0 0 0 1020.3 1020.0 0.0
14/07:30pm 14.6 14.0 7.6 63 3.5 CALM 0 0 0 0 1020.2 - 0.0
14/07:00pm 14.8 14.7 9.4 70 2.8 CALM 0 0 0 0 1020.0 1019.7 0.0
14/06:30pm 15.3 15.3 9.8 69 2.9 CALM 0 0 0 0 1019.6 - 0.0
14/06:00pm 16.9 16.5 8.1 56 4.5 CALM 0 0 0 0 1019.2 1018.9 0.0
14/05:30pm 18.4 16.7 8.2 51 5.3 SSE 7 9 4 5 1018.8 - 0.0
14/05:00pm 19.8 17.8 7.1 43 6.5 S 7 7 4 4 1018.6 1018.3 0.0
14/04:30pm 20.3 18.3 7.0 42 6.8 SE 7 11 4 6 1018.6 - 0.0
14/04:00pm 20.4 18.2 6.4 40 7.1 SSW 7 11 4 6 1018.5 1018.2 0.0
14/03:30pm 20.4 18.2 6.1 39 7.2 SSE 7 13 4 7 1018.6 - 0.0
14/03:00pm 20.2 16.5 6.4 40 7.0 ESE 15 20 8 11 1018.7 1018.4 0.0
14/02:30pm 20.5 17.8 7.3 42 6.8 ESE 11 22 6 12 1018.7 - 0.0
14/02:00pm 20.3 17.4 6.5 40 7.0 SE 11 17 6 9 1018.9 1018.6 0.0
14/01:30pm 20.4 17.7 7.2 42 6.8 ESE 11 19 6 10 1019.4 - 0.0
14/01:00pm 19.4 17.3 6.8 44 6.4 SW 7 11 4 6 1019.9 1019.6 0.0
14/12:30pm 19.5 17.5 8.7 49 5.7 ESE 9 13 5 7 1020.2 - 0.0
14/12:00pm 19.0 16.8 8.0 49 5.7 E 9 17 5 9 1020.7 1020.4 0.0
14/11:30am 18.8 16.1 8.9 52 5.2 ESE 13 19 7 10 1021.0 - 0.0
14/11:00am 18.2 15.4 8.4 52 5.1 E 13 19 7 10 1021.2 1020.9 0.0
14/10:30am 17.5 14.5 7.7 52 5.0 E 13 17 7 9 1021.4 - 0.0
14/10:00am 15.9 13.0 8.0 59 4.0 ENE 13 20 7 11 1021.4 1021.1 0.0
14/09:30am 16.4 13.7 8.9 61 3.9 E 13 17 7 9 1021.5 - 0.0
14/09:00am 15.6 12.5 8.8 64 3.5 ESE 15 19 8 10 1021.3 1021.0 0.0
14/08:30am 14.8 12.0 8.5 66 3.2 ESE 13 15 7 8 1021.1 - 0.0
14/08:00am 13.5 11.4 8.1 70 2.7 E 9 11 5 6 1020.9 1020.6 0.0
14/07:30am 11.8 9.8 8.6 81 1.6 ENE 9 9 5 5 1020.5 - 0.0
14/07:00am 10.6 8.9 8.2 85 1.2 E 7 9 4 5 1020.1 1019.8 0.0
14/06:30am 10.0 8.2 7.9 87 1.0 ENE 7 9 4 5 1020.0 - 0.0
14/06:00am 10.0 7.8 7.9 87 1.0 ENE 9 11 5 6 1019.8 1019.5 0.0
14/05:30am 11.1 8.5 7.8 80 1.6 ESE 11 15 6 8 1019.6 - 0.0
14/05:00am 11.5 8.2 8.1 79 1.7 SE 15 17 8 9 1019.2 1018.9 0.0
14/04:30am 11.3 8.0 8.1 81 1.6 SE 15 17 8 9 1018.9 - 0.0
14/04:00am 11.9 8.7 8.3 78 1.8 SE 15 17 8 9 1018.7 1018.4 0.0
14/03:30am 12.2 10.1 8.4 77 1.9 SE 9 11 5 6 1018.6 - 0.0
14/03:00am 12.2 10.1 8.4 77 1.9 ESE 9 11 5 6 1018.6 1018.3 0.0
14/02:30am 12.3 9.2 8.7 79 1.8 SE 15 17 8 9 1018.7 - 0.0
14/02:00am 12.8 9.6 8.6 75 2.1 SE 15 17 8 9 1019.1 1018.8 0.0
14/01:30am 13.0 10.2 8.6 74 2.2 SE 13 17 7 9 1019.3 - 0.0
14/01:00am 13.3 11.4 9.0 75 2.2 SE 9 11 5 6 1019.3 1019.0 0.0
14/12:30am 13.8 11.5 8.9 72 2.5 E 11 13 6 7 1019.1 - 0.0
14/12:00am 13.2 11.3 9.1 76 2.1 ESE 9 11 5 6 1019.1 1018.8 0.0
 
Date/Time
EST
Temp
°C
App
Temp
°C
Dew
Point
Rel
Hum
%
Delta-T
°C
Wind Press
QNH
hPa
Press
MSL
hPa
Rain
since 9 am
mm
Dir
 
Spd
km/h
Gust
km/h
Spd
kts
Gust
kts
13/11:30pm 13.0 11.3 9.7 80 1.7 E 9 9 5 5 1019.2 - 0.0
13/11:00pm 12.6 12.2 9.9 83 1.4 SSW 2 7 1 4 1019.1 1018.8 0.0
13/10:30pm 13.2 13.1 9.5 78 1.9 CALM 0 6 0 3 1018.9 - 0.0
13/10:00pm 14.1 12.2 9.2 72 2.5 E 9 9 5 5 1018.8 1018.5 0.0
13/09:30pm 13.5 11.7 9.4 76 2.1 NE 9 11 5 6 1018.7 - 0.0
13/09:00pm 14.4 14.3 9.6 73 2.5 CALM 0 6 0 3 1018.5 1018.2 0.0

Other Formats:

Comma delimited format used in spreadsheet applications
http://www.bom.gov.au/fwo/IDN60801/IDN60801.94910.axf

JavaScript Object Notation format (JSON) in row-major order
http://www.bom.gov.au/fwo/IDN60801/IDN60801.94910.json